• Join FlightAware (Why Join?)
  • Login
  • US Flag 
12:34PM EST


 

Airport Tracker/Info


-or-


 

Live Flight TrackerFlight Track Log ✈ DAL222 ✈ 04-Nov-2013 ✈ SBBR / BSB - KATL

Flight Track Log - Related Links

Times and Time Zones

All times are in EST time to prevent confusion due to time zone crossing. See the DAL222 flight status page for this flight to view local times or setup timezone preferences in your user account.

Time Position Orientation Groundspeed Altitude Reporting Facility
EST Latitude Longitude Course Direction KTS MPH feet Rate Location/Type
02:20AM -15.6007 -48.1008 325° Northwest  Level Estimated
02:21AM -15.3041 -48.3132 325° Northwest  Level Estimated
02:22AM -15.0073 -48.5249 325° Northwest  Level Estimated
02:23AM -14.7103 -48.7361 325° Northwest  Level Estimated
02:24AM -14.4131 -48.9468 326° Northwest  Level Estimated
02:25AM -14.1157 -49.1568 326° Northwest  Level Estimated
02:26AM -13.8181 -49.3663 326° Northwest  Level Estimated
02:27AM -13.5204 -49.5753 326° Northwest  Level Estimated
02:28AM -13.2224 -49.7838 326° Northwest  Level Estimated
02:28AM 18.7394 -72.0544 326° Northwest 467 537 38,000  Level Miami Center
02:29AM -12.9243 -49.9917 326° Northwest  Level Estimated
02:29AM 18.8422 -72.1406 322° Northwest 462 532 38,000  Level Miami Center
02:30AM -12.6261 -50.1992 326° Northwest  Level Estimated
02:30AM 18.9422 -72.2139 325° Northwest 454 522 38,000  Level Miami Center
02:31AM -12.3277 -50.4061 326° Northwest  Level Estimated
02:31AM 19.0425 -72.2983 321° Northwest 454 522 38,000  Level Miami Center
02:32AM 19.1447 -72.3806 323° Northwest 454 522 38,000  Level Miami Center
02:33AM 19.2556 -72.4625 325° Northwest 444 511 38,000  Level Miami Center
02:34AM 19.3431 -72.5433 319° Northwest 464 534 38,000  Level Miami Center
02:35AM 19.4456 -72.6258 323° Northwest 464 534 38,000  Level Miami Center
02:36AM 19.5539 -72.7083 324° Northwest 451 519 38,000  Level Miami Center
02:37AM 19.6583 -72.7911 323° Northwest 456 525 38,000  Level Miami Center
02:38AM 19.7606 -72.8783 321° Northwest 462 532 38,000  Level Miami Center
02:39AM 19.8606 -72.9617 322° Northwest 462 532 38,000  Level Miami Center
02:40AM 19.9628 -73.0447 323° Northwest 457 526 38,000 -50 Level Miami Center
02:41AM 20.0628 -73.1303 321° Northwest 457 526 37,900  Descending Miami Center
02:42AM 20.1689 -73.2114 324° Northwest 457 526 38,000 50 Climbing Miami Center
02:43AM 20.2772 -73.2881 326° Northwest 464 534 38,000  Level Miami Center
02:44AM 20.3833 -73.3694 324° Northwest 469 540 38,000  Level Miami Center
02:45AM 20.4914 -73.4464 326° Northwest 469 540 38,000  Level Miami Center
02:46AM 20.5953 -73.5236 325° Northwest 469 540 38,000  Level Miami Center
02:47AM 20.7033 -73.6008 326° Northwest 469 540 38,000  Level Miami Center
02:48AM 20.8114 -73.6825 325° Northwest 469 540 38,000  Level Miami Center
02:49AM 20.9175 -73.7600 326° Northwest 469 540 38,000  Level Miami Center
02:50AM 21.0169 -73.8356 325° Northwest 477 549 38,000  Level Miami Center
02:51AM 21.1250 -73.9175 325° Northwest 477 549 38,000  Level Miami Center
02:52AM 21.2308 -73.9978 325° Northwest 477 549 38,000  Level Miami Center
02:53AM 21.3367 -74.0756 326° Northwest 477 549 38,000  Level Miami Center
02:54AM 21.4447 -74.1558 325° Northwest 477 549 38,000  Level Miami Center
02:55AM 21.5506 -74.2386 324° Northwest 477 549 38,000  Level Miami Center
02:56AM 21.6583 -74.3214 324° Northwest 477 549 38,000  Level Miami Center
02:57AM 21.7619 -74.4044 323° Northwest 477 549 38,000  Level Miami Center
02:58AM 21.8697 -74.4828 326° Northwest 477 549 38,000  Level Miami Center
02:59AM 21.9756 -74.5661 324° Northwest 472 543 38,000  Level Miami Center
03:00AM 22.0811 -74.6494 324° Northwest 472 543 38,000  Level Miami Center
03:01AM 22.1889 -74.7306 325° Northwest 477 549 38,000  Level Miami Center
03:02AM 22.2986 -74.8094 326° Northwest 477 549 38,000  Level Miami Center
03:03AM 22.4042 -74.8933 324° Northwest 477 549 38,000  Level Miami Center
03:04AM 22.5117 -74.9747 325° Northwest 477 549 38,000  Level Miami Center
03:05AM 22.6192 -75.0589 324° Northwest 477 549 38,000  Level Miami Center
03:06AM 22.7267 -75.1383 326° Northwest 482 555 38,000  Level Miami Center
03:07AM 22.8319 -75.2203 324° Northwest 476 548 38,000  Level Miami Center
03:08AM 22.9394 -75.3025 325° Northwest 476 548 38,000  Level Miami Center
03:09AM 23.0447 -75.3847 324° Northwest 476 548 38,000  Level Miami Center
03:10AM 23.1522 -75.4692 324° Northwest 481 554 38,000  Level Miami Center
03:11AM 23.2572 -75.5494 325° Northwest 481 554 38,000  Level Miami Center
03:12AM 23.3625 -75.6300 325° Northwest 474 545 38,000  Level Miami Center
03:13AM 23.4697 -75.7172 323° Northwest 469 540 38,000  Level Miami Center
03:14AM 23.5831 -75.7956 328° Northwest 479 551 38,000  Level Miami Center
03:15AM 23.6883 -75.8856 322° Northwest 489 563 38,000  Level Miami Center
03:16AM 23.7953 -75.9708 324° Northwest 479 551 38,000  Level Miami Center
03:17AM 23.9003 -76.0542 324° Northwest 479 551 38,000  Level Miami Center
03:18AM 24.0117 -76.1400 325° Northwest 479 551 38,000  Level Miami Center
03:19AM 24.1186 -76.2258 324° Northwest 484 557 38,000  Level Miami Center
03:20AM 24.2256 -76.3097 324° Northwest 484 557 38,000  Level Miami Center
03:26AM 24.8968 -76.8459 324° Northwest 482 555 38,000  Level FlightAware ADS-B
03:28AM 25.4060 -77.2458 325° Northwest  Level Estimated
03:29AM 25.6992 -77.4780 325° Northwest  Level Estimated
03:30AM 25.9921 -77.7113 324° Northwest  Level Estimated
03:31AM 26.2846 -77.9459 324° Northwest  Level Estimated
03:32AM 26.5767 -78.1816 324° Northwest  Level Estimated
03:33AM 26.8684 -78.4185 324° Northwest  Level Estimated
03:34AM 27.1598 -78.6567 324° Northwest  Level Estimated
03:35AM 27.4507 -78.8961 324° Northwest  Level Estimated
03:36AM 27.7412 -79.1367 324° Northwest  Level Estimated
03:37AM 28.0313 -79.3787 324° Northwest  Level Estimated
03:38AM 28.3210 -79.6219 324° Northwest  Level Estimated
03:39AM 28.6102 -79.8665 323° Northwest  Level Estimated
03:40AM 28.8990 -80.1124 323° Northwest  Level Estimated
03:41AM 29.1874 -80.3597 323° Northwest  Level Estimated
03:42AM 29.4753 -80.6085 323° Northwest  Level Estimated
03:43AM 29.7627 -80.8586 323° Northwest  Level Estimated
03:44AM 30.0496 -81.1101 323° Northwest  Level Estimated
03:45AM 30.3361 -81.3631 323° Northwest  Level Estimated
03:46AM 30.6221 -81.6176 323° Northwest  Level Estimated
03:47AM 30.9076 -81.8736 322° Northwest  Level Estimated
03:48AM 31.1926 -82.1311 322° Northwest  Level Estimated
03:49AM 31.4770 -82.3902 322° Northwest  Level Estimated
03:50AM 31.7609 -82.6509 322° Northwest  Level Estimated
03:51AM 32.0443 -82.9132 322° Northwest  Level Estimated
03:52AM 32.3272 -83.1770 322° Northwest  Level Estimated
03:53AM 32.6095 -83.4426 322° Northwest  Level Estimated
03:54AM 32.8912 -83.7098 321° Northwest  Level Estimated
03:55AM 33.1724 -83.9788 321° Northwest  Level Estimated
03:56AM 33.4530 -84.2494 321° Northwest  Level Estimated
03:57AM 33.6367 -84.4279 321° Northwest  Level Estimated
03:58AM 33.6367 -84.4279 261° West  Level Estimated
03:59AM 33.6367 -84.4279 261° West  Level Estimated
04:00AM 33.6367 -84.4279 261° West  Level Estimated
04:01AM 33.6367 -84.4279 261° West  Level Estimated
04:02AM 33.6367 -84.4279 261° West  Level Estimated
04:03AM 33.6367 -84.4279 261° West  Level Estimated
04:04AM 33.6367 -84.4279 261° West  Level Estimated
04:05AM 33.6367 -84.4279 261° West  Level Estimated
04:06AM 33.6367 -84.4279 261° West  Level Estimated
04:07AM 33.6367 -84.4279 261° West  Level Estimated
04:08AM 33.6367 -84.4279 261° West  Level Estimated
04:09AM 33.6367 -84.4279 261° West  Level Estimated
04:10AM 33.6367 -84.4279 261° West  Level Estimated
04:11AM 33.6367 -84.4279 261° West  Level Estimated
04:12AM 33.6367 -84.4279 261° West  Level Estimated
04:13AM 33.6367 -84.4279 261° West  Level Estimated
04:14AM 33.6367 -84.4279 261° West  Level Estimated
04:15AM 33.6367 -84.4279 261° West  Level Estimated
04:16AM 33.6367 -84.4279 261° West  Level Estimated
04:17AM 33.6367 -84.4279 261° West  Level Estimated
04:18AM 33.6367 -84.4279 261° West  Level Estimated
04:19AM 33.6367 -84.4279 261° West  Level Estimated
04:20AM 33.6367 -84.4279 261° West  Level Estimated
04:21AM 33.6367 -84.4279 261° West  Level Estimated
04:22AM 33.6367 -84.4279 261° West  Level Estimated
04:23AM 33.6367 -84.4279 261° West  Level Estimated
04:24AM 33.6367 -84.4279 261° West  Level Estimated
04:25AM 33.6367 -84.4279 261° West  Level Estimated
04:26AM 33.6367 -84.4279 261° West  Level Estimated
04:27AM 33.6367 -84.4279 261° West  Level Estimated
04:28AM 33.6367 -84.4279 261° West  Level Estimated
04:29AM 33.6367 -84.4279 261° West  Level Estimated
04:30AM 33.6367 -84.4279 261° West  Level Estimated
04:31AM 33.6367 -84.4279 261° West  Level Estimated
04:32AM 33.6367 -84.4279 261° West  Level Estimated
04:33AM 33.6367 -84.4279 261° West  Level Estimated
04:34AM 33.6367 -84.4279 261° West  Level Estimated
04:35AM 33.6367 -84.4279 261° West  Level Estimated
04:36AM 33.6367 -84.4279 261° West  Level Estimated
04:37AM 33.6367 -84.4279 261° West  Level Estimated
04:38AM 33.6367 -84.4279 261° West  Level Estimated
04:39AM 33.6367 -84.4279 261° West  Level Estimated
04:40AM 33.6367 -84.4279 261° West  Level Estimated
04:41AM 33.6367 -84.4279 261° West  Level Estimated
04:42AM 33.6367 -84.4279 261° West  Level Estimated
04:43AM 33.6367 -84.4279 261° West  Level Estimated
04:44AM 33.6367 -84.4279 261° West  Level Estimated
04:45AM 33.6367 -84.4279 261° West  Level Estimated
04:46AM 33.6367 -84.4279 261° West  Level Estimated
04:47AM 33.6367 -84.4279 261° West  Level Estimated
04:48AM 33.6367 -84.4279 261° West  Level Estimated
04:49AM 33.6367 -84.4279 261° West  Level Estimated
04:50AM 33.6367 -84.4279 261° West  Level Estimated
04:51AM 33.6367 -84.4279 261° West  Level Estimated
04:52AM 33.6367 -84.4279 261° West  Level Estimated
04:53AM 33.6367 -84.4279 261° West  Level Estimated
04:54AM 33.6367 -84.4279 261° West  Level Estimated
04:55AM 33.6367 -84.4279 261° West  Level Estimated
04:56AM 33.6367 -84.4279 261° West  Level Estimated
04:57AM 33.6367 -84.4279 261° West  Level Estimated
04:58AM 33.6367 -84.4279 261° West  Level Estimated
04:59AM 33.6367 -84.4279 261° West  Level Estimated
05:00AM 33.6367 -84.4279 261° West  Level Estimated
05:01AM 33.6367 -84.4279 261° West  Level Estimated
05:02AM 33.6367 -84.4279 261° West  Level Estimated
05:03AM 33.6367 -84.4279 261° West  Level Estimated
05:04AM 33.6367 -84.4279 261° West  Level Estimated
05:05AM 33.6367 -84.4279 261° West  Level Estimated
05:06AM 33.6367 -84.4279 261° West  Level Estimated
05:07AM 33.6367 -84.4279 261° West  Level Estimated
05:08AM 33.6367 -84.4279 261° West  Level Estimated
05:09AM 33.6367 -84.4279 261° West  Level Estimated
05:10AM 33.6367 -84.4279 261° West  Level Estimated
05:11AM 33.6367 -84.4279 261° West  Level Estimated
05:12AM 33.6367 -84.4279 261° West  Level Estimated
05:13AM 33.6367 -84.4279 261° West  Level Estimated
05:14AM 33.6367 -84.4279 261° West  Level Estimated
05:15AM 33.6367 -84.4279 261° West  Level Estimated
05:16AM 33.6367 -84.4279 261° West  Level Estimated